Saturday, August 1, 2015, 5:45 AM EDT

KSEG, Selinsgrove Penn Valley Airport

Location: Selinsgrove, PA, United States Lat: 40.817
Local Time: 5:45 AM EDT ( 9:45 GMT) Lon: -76.867
Time Zone: US/Eastern Elev: 449 ft

Show me the last for .
Show Decoded

2015-08-01 04:53 METAR KSEG 010853Z AUTO 00000KT 8SM OVC110 18/17 A2983 RMK AO2 SLP096 T01780167
                 56008 =
2015-08-01 03:53 METAR KSEG 010753Z AUTO 00000KT 4SM BR SCT120 17/17 A2983 RMK AO2 SLP099
                 T01720167 =
2015-08-01 02:53 METAR KSEG 010653Z AUTO 00000KT 4SM BR CLR 17/16 A2984 RMK AO2 SLP101 T01670161
                 =
2015-08-01 01:53 METAR KSEG 010553Z AUTO 00000KT 7SM CLR 18/17 A2985 RMK AO2 SLP104 60000
                 T01780167 10228 20178 58004 =
2015-08-01 00:53 METAR KSEG 010453Z AUTO 00000KT 7SM CLR 18/17 A2986 RMK AO2 SLP107 T01780167
                 403110144 =
2015-07-31 23:53 METAR KSEG 010353Z AUTO 00000KT 8SM FEW080 BKN110 19/18 A2986 RMK AO2 SLP109
                 T01890178 =
2015-07-31 22:53 METAR KSEG 010253Z AUTO 00000KT 9SM CLR 19/18 A2986 RMK AO2 SLP108 60000
                 T01890178 53009 =
2015-07-31 21:53 METAR KSEG 010153Z AUTO 00000KT 10SM CLR 19/18 A2985 RMK AO2 RAB00E13 SLP104
                 P0000 T01940183 =
2015-07-31 21:06 METAR KSEG 010106Z AUTO 00000KT 10SM -RA FEW001 21/19 A2984 RMK AO2 RAB00 P0000
                 T02060194 =
2015-07-31 20:53 METAR KSEG 010053Z AUTO 21003KT 10SM CLR 21/19 A2983 RMK AO2 SLP100 T02110194 =
2015-07-31 19:53 METAR KSEG 312353Z AUTO 00000KT 10SM CLR 23/21 A2983 RMK AO2 SLP099 T02280206
                 10311 20228 55008 =
2015-07-31 18:53 METAR KSEG 312253Z AUTO VRB03KT 10SM CLR 28/17 A2983 RMK AO2 SLP099 T02780167 =
2015-07-31 17:53 METAR KSEG 312153Z AUTO 24005KT 10SM FEW065 SCT110 29/17 A2985 RMK AO2 SLP104
                 T02890167 =
2015-07-31 16:53 METAR KSEG 312053Z AUTO VRB06KT 10SM FEW070 SCT100 29/16 A2986 RMK AO2 SLP107
                 T02940161 57015 =
2015-07-31 15:53 METAR KSEG 311953Z AUTO VRB05KT 10SM SCT080 SCT095 30/16 A2987 RMK AO2 SLP111
                 T03000161 =
2015-07-31 14:53 METAR KSEG 311853Z AUTO VRB04KT 10SM CLR 31/14 A2989 RMK AO2 SLP118 T03060139 =
2015-07-31 13:53 METAR KSEG 311753Z AUTO VRB03KT 10SM CLR 30/14 A2990 RMK AO2 SLP122 T03000144
                 10306 20194 58015 =
2015-07-31 12:53 METAR KSEG 311653Z AUTO VRB03KT 10SM BKN060 28/16 A2992 RMK AO2 SLP126 T02780161
                 =
2015-07-31 11:53 METAR KSEG 311553Z AUTO 00000KT 10SM CLR 28/17 A2994 RMK AO2 SLP133 T02830172 =
2015-07-31 09:53 METAR KSEG 311353Z AUTO VRB03KT 10SM CLR 26/17 A2995 RMK AO2 SLP138 T02610172 =
2015-07-31 08:53 METAR KSEG 311253Z AUTO 00000KT 10SM CLR 23/17 A2995 RMK AO2 SLP139 T02280172 =
2015-07-31 07:53 METAR KSEG 311153Z AUTO 00000KT 10SM CLR 19/17 A2995 RMK AO2 SLP139 70001
                 T01940167 10194 20144 53012 =
2015-07-31 06:53 METAR KSEG 311053Z AUTO 00000KT 7SM CLR 16/16 A2994 RMK AO2 SLP135 T01610156 =
2015-07-31 05:53 METAR KSEG 310953Z AUTO 00000KT 7SM CLR 15/14 A2992 RMK AO2 SLP129 T01500139 =

Support USWX by starting your Amazon purchase here.